sensor_id;sensor_type;location;lat;lon;timestamp;P1;durP1;ratioP1;P2;durP2;ratioP2
22705;SDS011;11520;51.198;4.468;2023-01-30T00:00:55;39.67;;;22.30;;
22705;SDS011;11520;51.198;4.468;2023-01-30T00:03:24;42.15;;;21.98;;
22705;SDS011;11520;51.198;4.468;2023-01-30T00:05:51;37.25;;;21.45;;
22705;SDS011;11520;51.198;4.468;2023-01-30T00:08:17;36.45;;;20.60;;
22705;SDS011;11520;51.198;4.468;2023-01-30T00:10:46;40.30;;;21.35;;
22705;SDS011;11520;51.198;4.468;2023-01-30T00:13:16;39.15;;;20.73;;
22705;SDS011;11520;51.198;4.468;2023-01-30T00:15:48;35.67;;;20.80;;
22705;SDS011;11520;51.198;4.468;2023-01-30T00:18:14;39.80;;;22.17;;
22705;SDS011;11520;51.198;4.468;2023-01-30T00:20:40;41.10;;;21.08;;
22705;SDS011;11520;51.198;4.468;2023-01-30T00:23:05;41.22;;;22.00;;
22705;SDS011;11520;51.198;4.468;2023-01-30T00:25:31;33.50;;;19.75;;
22705;SDS011;11520;51.198;4.468;2023-01-30T00:27:58;38.42;;;21.35;;
22705;SDS011;11520;51.198;4.468;2023-01-30T00:30:26;32.10;;;19.88;;
22705;SDS011;11520;51.198;4.468;2023-01-30T00:32:52;39.97;;;21.13;;
22705;SDS011;11520;51.198;4.468;2023-01-30T00:35:24;36.28;;;19.65;;
22705;SDS011;11520;51.198;4.468;2023-01-30T00:37:55;39.65;;;21.75;;
22705;SDS011;11520;51.198;4.468;2023-01-30T00:40:22;38.22;;;19.95;;
22705;SDS011;11520;51.198;4.468;2023-01-30T00:42:49;36.30;;;20.55;;
22705;SDS011;11520;51.198;4.468;2023-01-30T00:45:33;39.30;;;20.80;;
22705;SDS011;11520;51.198;4.468;2023-01-30T00:48:17;36.42;;;19.55;;
22705;SDS011;11520;51.198;4.468;2023-01-30T00:50:44;41.40;;;20.48;;
22705;SDS011;11520;51.198;4.468;2023-01-30T00:53:10;43.00;;;22.15;;
22705;SDS011;11520;51.198;4.468;2023-01-30T00:55:39;37.22;;;20.70;;
22705;SDS011;11520;51.198;4.468;2023-01-30T00:58:07;37.95;;;21.02;;
22705;SDS011;11520;51.198;4.468;2023-01-30T01:00:35;39.45;;;20.98;;
22705;SDS011;11520;51.198;4.468;2023-01-30T01:03:01;36.38;;;20.38;;
22705;SDS011;11520;51.198;4.468;2023-01-30T01:05:27;36.80;;;20.45;;
22705;SDS011;11520;51.198;4.468;2023-01-30T01:07:53;40.25;;;20.58;;
22705;SDS011;11520;51.198;4.468;2023-01-30T01:10:19;42.40;;;22.50;;
22705;SDS011;11520;51.198;4.468;2023-01-30T01:12:45;38.03;;;20.27;;
22705;SDS011;11520;51.198;4.468;2023-01-30T01:15:16;39.33;;;21.52;;
22705;SDS011;11520;51.198;4.468;2023-01-30T01:17:42;35.47;;;18.70;;
22705;SDS011;11520;51.198;4.468;2023-01-30T01:20:10;34.10;;;18.92;;
22705;SDS011;11520;51.198;4.468;2023-01-30T01:22:36;38.20;;;20.48;;
22705;SDS011;11520;51.198;4.468;2023-01-30T01:25:02;34.53;;;19.52;;
22705;SDS011;11520;51.198;4.468;2023-01-30T01:27:28;38.88;;;21.38;;
22705;SDS011;11520;51.198;4.468;2023-01-30T01:29:54;35.22;;;20.88;;
22705;SDS011;11520;51.198;4.468;2023-01-30T01:32:20;36.72;;;19.90;;
22705;SDS011;11520;51.198;4.468;2023-01-30T01:34:47;37.13;;;19.23;;
22705;SDS011;11520;51.198;4.468;2023-01-30T01:37:14;35.33;;;20.10;;
22705;SDS011;11520;51.198;4.468;2023-01-30T01:39:40;37.92;;;20.15;;
22705;SDS011;11520;51.198;4.468;2023-01-30T01:42:25;31.13;;;17.95;;
22705;SDS011;11520;51.198;4.468;2023-01-30T01:45:13;33.03;;;19.10;;
22705;SDS011;11520;51.198;4.468;2023-01-30T01:47:47;33.55;;;18.65;;
22705;SDS011;11520;51.198;4.468;2023-01-30T01:50:27;30.58;;;17.70;;
22705;SDS011;11520;51.198;4.468;2023-01-30T01:53:12;28.95;;;16.88;;
22705;SDS011;11520;51.198;4.468;2023-01-30T01:55:42;31.98;;;16.98;;
22705;SDS011;11520;51.198;4.468;2023-01-30T01:58:15;30.48;;;16.40;;
22705;SDS011;11520;51.198;4.468;2023-01-30T02:00:48;28.20;;;15.80;;
22705;SDS011;11520;51.198;4.468;2023-01-30T02:03:16;28.88;;;15.95;;
22705;SDS011;11520;51.198;4.468;2023-01-30T02:05:47;32.60;;;15.45;;
22705;SDS011;11520;51.198;4.468;2023-01-30T02:08:17;27.55;;;16.30;;
22705;SDS011;11520;51.198;4.468;2023-01-30T02:13:25;28.52;;;15.70;;
22705;SDS011;11520;51.198;4.468;2023-01-30T02:15:52;30.55;;;16.23;;
22705;SDS011;11520;51.198;4.468;2023-01-30T02:18:19;25.40;;;15.43;;
22705;SDS011;11520;51.198;4.468;2023-01-30T02:20:54;30.67;;;15.73;;
22705;SDS011;11520;51.198;4.468;2023-01-30T02:31:53;26.23;;;14.18;;
22705;SDS011;11520;51.198;4.468;2023-01-30T02:42:25;26.40;;;14.90;;
22705;SDS011;11520;51.198;4.468;2023-01-30T02:45:10;27.55;;;15.18;;
22705;SDS011;11520;51.198;4.468;2023-01-30T02:47:38;26.45;;;14.70;;
22705;SDS011;11520;51.198;4.468;2023-01-30T02:50:16;26.60;;;13.63;;
22705;SDS011;11520;51.198;4.468;2023-01-30T02:52:46;23.55;;;13.60;;
22705;SDS011;11520;51.198;4.468;2023-01-30T02:57:54;22.33;;;13.70;;
22705;SDS011;11520;51.198;4.468;2023-01-30T03:00:38;22.92;;;12.95;;
22705;SDS011;11520;51.198;4.468;2023-01-30T03:09:17;20.75;;;11.68;;
22705;SDS011;11520;51.198;4.468;2023-01-30T03:16:57;21.63;;;11.77;;
22705;SDS011;11520;51.198;4.468;2023-01-30T03:19:25;21.20;;;12.20;;
22705;SDS011;11520;51.198;4.468;2023-01-30T03:21:54;25.08;;;11.55;;
22705;SDS011;11520;51.198;4.468;2023-01-30T03:24:19;23.33;;;11.68;;
22705;SDS011;11520;51.198;4.468;2023-01-30T03:26:48;22.73;;;11.32;;
22705;SDS011;11520;51.198;4.468;2023-01-30T03:29:21;23.77;;;12.30;;
22705;SDS011;11520;51.198;4.468;2023-01-30T03:31:47;22.83;;;12.05;;
22705;SDS011;11520;51.198;4.468;2023-01-30T03:34:12;24.60;;;11.00;;
22705;SDS011;11520;51.198;4.468;2023-01-30T03:36:41;17.58;;;11.57;;
22705;SDS011;11520;51.198;4.468;2023-01-30T03:39:07;18.88;;;11.07;;
22705;SDS011;11520;51.198;4.468;2023-01-30T03:41:33;18.58;;;10.98;;
22705;SDS011;11520;51.198;4.468;2023-01-30T03:43:58;19.15;;;11.23;;
22705;SDS011;11520;51.198;4.468;2023-01-30T03:46:24;17.55;;;11.30;;
22705;SDS011;11520;51.198;4.468;2023-01-30T03:48:50;23.20;;;11.50;;
22705;SDS011;11520;51.198;4.468;2023-01-30T03:51:16;20.05;;;11.00;;
22705;SDS011;11520;51.198;4.468;2023-01-30T03:53:45;21.05;;;11.30;;
22705;SDS011;11520;51.198;4.468;2023-01-30T03:56:12;19.67;;;10.50;;
22705;SDS011;11520;51.198;4.468;2023-01-30T03:58:38;20.55;;;10.30;;
22705;SDS011;11520;51.198;4.468;2023-01-30T04:01:04;21.52;;;10.57;;
22705;SDS011;11520;51.198;4.468;2023-01-30T04:03:30;19.52;;;10.32;;
22705;SDS011;11520;51.198;4.468;2023-01-30T04:05:56;21.45;;;10.70;;
22705;SDS011;11520;51.198;4.468;2023-01-30T04:08:23;16.27;;;9.57;;
22705;SDS011;11520;51.198;4.468;2023-01-30T04:10:48;21.85;;;11.25;;
22705;SDS011;11520;51.198;4.468;2023-01-30T04:13:14;18.95;;;10.25;;
22705;SDS011;11520;51.198;4.468;2023-01-30T04:15:40;18.10;;;10.48;;
22705;SDS011;11520;51.198;4.468;2023-01-30T04:18:05;15.60;;;9.93;;
22705;SDS011;11520;51.198;4.468;2023-01-30T04:20:31;14.10;;;9.93;;
22705;SDS011;11520;51.198;4.468;2023-01-30T04:22:56;20.02;;;9.85;;
22705;SDS011;11520;51.198;4.468;2023-01-30T04:25:22;25.48;;;10.77;;
22705;SDS011;11520;51.198;4.468;2023-01-30T04:27:48;18.52;;;10.02;;
22705;SDS011;11520;51.198;4.468;2023-01-30T04:30:14;16.98;;;9.95;;
22705;SDS011;11520;51.198;4.468;2023-01-30T04:32:40;19.33;;;11.15;;
22705;SDS011;11520;51.198;4.468;2023-01-30T04:35:06;15.55;;;10.18;;
22705;SDS011;11520;51.198;4.468;2023-01-30T04:37:32;17.75;;;10.23;;
22705;SDS011;11520;51.198;4.468;2023-01-30T04:39:58;19.40;;;10.23;;
22705;SDS011;11520;51.198;4.468;2023-01-30T04:42:24;16.88;;;10.70;;
22705;SDS011;11520;51.198;4.468;2023-01-30T04:44:53;19.30;;;10.70;;
22705;SDS011;11520;51.198;4.468;2023-01-30T04:47:20;18.83;;;10.27;;
22705;SDS011;11520;51.198;4.468;2023-01-30T04:49:45;22.48;;;10.77;;
22705;SDS011;11520;51.198;4.468;2023-01-30T04:52:12;19.65;;;9.93;;
22705;SDS011;11520;51.198;4.468;2023-01-30T04:54:37;14.88;;;9.73;;
22705;SDS011;11520;51.198;4.468;2023-01-30T04:57:03;22.33;;;9.65;;
22705;SDS011;11520;51.198;4.468;2023-01-30T04:59:28;23.45;;;9.35;;
22705;SDS011;11520;51.198;4.468;2023-01-30T05:01:55;16.58;;;9.00;;
22705;SDS011;11520;51.198;4.468;2023-01-30T05:04:21;15.02;;;8.80;;
22705;SDS011;11520;51.198;4.468;2023-01-30T05:06:46;19.90;;;9.60;;
22705;SDS011;11520;51.198;4.468;2023-01-30T05:09:12;14.18;;;8.68;;
22705;SDS011;11520;51.198;4.468;2023-01-30T05:11:39;12.90;;;9.00;;
22705;SDS011;11520;51.198;4.468;2023-01-30T05:14:04;22.83;;;8.45;;
22705;SDS011;11520;51.198;4.468;2023-01-30T05:16:32;12.23;;;8.32;;
22705;SDS011;11520;51.198;4.468;2023-01-30T05:18:58;14.48;;;8.50;;
22705;SDS011;11520;51.198;4.468;2023-01-30T05:21:26;14.80;;;8.82;;
22705;SDS011;11520;51.198;4.468;2023-01-30T05:23:54;17.48;;;8.55;;
22705;SDS011;11520;51.198;4.468;2023-01-30T05:26:21;15.00;;;8.25;;
22705;SDS011;11520;51.198;4.468;2023-01-30T05:28:51;16.92;;;9.07;;
22705;SDS011;11520;51.198;4.468;2023-01-30T05:31:18;15.38;;;8.30;;
22705;SDS011;11520;51.198;4.468;2023-01-30T05:33:44;18.05;;;9.05;;
22705;SDS011;11520;51.198;4.468;2023-01-30T05:36:13;16.73;;;8.50;;
22705;SDS011;11520;51.198;4.468;2023-01-30T05:38:44;14.63;;;7.97;;
22705;SDS011;11520;51.198;4.468;2023-01-30T05:41:11;14.15;;;7.88;;
22705;SDS011;11520;51.198;4.468;2023-01-30T05:43:38;18.20;;;8.07;;
22705;SDS011;11520;51.198;4.468;2023-01-30T05:46:05;17.45;;;8.48;;
22705;SDS011;11520;51.198;4.468;2023-01-30T05:48:34;19.60;;;8.52;;
22705;SDS011;11520;51.198;4.468;2023-01-30T05:51:00;13.75;;;8.10;;
22705;SDS011;11520;51.198;4.468;2023-01-30T05:53:26;17.05;;;6.93;;
22705;SDS011;11520;51.198;4.468;2023-01-30T05:55:57;19.02;;;6.75;;
22705;SDS011;11520;51.198;4.468;2023-01-30T05:58:24;15.90;;;6.50;;
22705;SDS011;11520;51.198;4.468;2023-01-30T06:00:50;17.02;;;6.95;;
22705;SDS011;11520;51.198;4.468;2023-01-30T06:03:16;16.42;;;6.47;;
22705;SDS011;11520;51.198;4.468;2023-01-30T06:05:42;13.50;;;5.47;;
22705;SDS011;11520;51.198;4.468;2023-01-30T06:08:07;14.55;;;5.55;;
22705;SDS011;11520;51.198;4.468;2023-01-30T06:10:34;14.18;;;4.80;;
22705;SDS011;11520;51.198;4.468;2023-01-30T06:13:00;16.05;;;5.82;;
22705;SDS011;11520;51.198;4.468;2023-01-30T06:15:25;13.52;;;4.70;;
22705;SDS011;11520;51.198;4.468;2023-01-30T06:17:52;11.32;;;5.30;;
22705;SDS011;11520;51.198;4.468;2023-01-30T06:20:18;15.40;;;5.55;;
22705;SDS011;11520;51.198;4.468;2023-01-30T06:22:45;13.32;;;4.47;;
22705;SDS011;11520;51.198;4.468;2023-01-30T06:25:12;17.63;;;5.20;;
22705;SDS011;11520;51.198;4.468;2023-01-30T06:27:40;12.93;;;4.43;;
22705;SDS011;11520;51.198;4.468;2023-01-30T06:30:07;16.40;;;5.05;;
22705;SDS011;11520;51.198;4.468;2023-01-30T06:32:33;10.50;;;3.53;;
22705;SDS011;11520;51.198;4.468;2023-01-30T06:34:59;13.88;;;3.70;;
22705;SDS011;11520;51.198;4.468;2023-01-30T06:37:24;12.48;;;3.55;;
22705;SDS011;11520;51.198;4.468;2023-01-30T06:39:50;15.13;;;4.22;;
22705;SDS011;11520;51.198;4.468;2023-01-30T06:42:16;15.15;;;3.83;;
22705;SDS011;11520;51.198;4.468;2023-01-30T06:44:42;19.15;;;3.70;;
22705;SDS011;11520;51.198;4.468;2023-01-30T06:47:08;19.15;;;3.13;;
22705;SDS011;11520;51.198;4.468;2023-01-30T06:49:33;24.95;;;4.30;;
22705;SDS011;11520;51.198;4.468;2023-01-30T06:52:00;11.15;;;3.45;;
22705;SDS011;11520;51.198;4.468;2023-01-30T06:54:26;11.88;;;3.08;;
22705;SDS011;11520;51.198;4.468;2023-01-30T06:56:52;10.45;;;2.60;;
22705;SDS011;11520;51.198;4.468;2023-01-30T06:59:17;13.80;;;2.78;;
22705;SDS011;11520;51.198;4.468;2023-01-30T07:01:43;14.02;;;3.00;;
22705;SDS011;11520;51.198;4.468;2023-01-30T07:04:09;16.83;;;3.55;;
22705;SDS011;11520;51.198;4.468;2023-01-30T07:06:34;17.42;;;2.53;;
22705;SDS011;11520;51.198;4.468;2023-01-30T07:09:00;10.95;;;2.65;;
22705;SDS011;11520;51.198;4.468;2023-01-30T07:11:26;10.75;;;2.95;;
22705;SDS011;11520;51.198;4.468;2023-01-30T07:13:51;16.08;;;3.40;;
22705;SDS011;11520;51.198;4.468;2023-01-30T07:16:17;13.98;;;3.05;;
22705;SDS011;11520;51.198;4.468;2023-01-30T07:18:43;19.20;;;3.83;;
22705;SDS011;11520;51.198;4.468;2023-01-30T07:21:09;11.65;;;2.67;;
22705;SDS011;11520;51.198;4.468;2023-01-30T07:23:35;15.98;;;3.28;;
22705;SDS011;11520;51.198;4.468;2023-01-30T07:26:04;15.80;;;3.03;;
22705;SDS011;11520;51.198;4.468;2023-01-30T07:28:30;13.18;;;2.67;;
22705;SDS011;11520;51.198;4.468;2023-01-30T07:30:59;11.60;;;2.42;;
22705;SDS011;11520;51.198;4.468;2023-01-30T07:33:25;13.85;;;2.88;;
22705;SDS011;11520;51.198;4.468;2023-01-30T07:35:51;15.90;;;3.03;;
22705;SDS011;11520;51.198;4.468;2023-01-30T07:38:17;18.35;;;3.03;;
22705;SDS011;11520;51.198;4.468;2023-01-30T07:40:43;13.55;;;2.85;;
22705;SDS011;11520;51.198;4.468;2023-01-30T07:43:10;12.00;;;2.30;;
22705;SDS011;11520;51.198;4.468;2023-01-30T07:45:38;16.95;;;3.30;;
22705;SDS011;11520;51.198;4.468;2023-01-30T07:48:07;15.48;;;4.35;;
22705;SDS011;11520;51.198;4.468;2023-01-30T07:50:35;15.57;;;2.70;;
22705;SDS011;11520;51.198;4.468;2023-01-30T07:53:02;11.85;;;2.95;;
22705;SDS011;11520;51.198;4.468;2023-01-30T07:55:29;13.00;;;2.63;;
22705;SDS011;11520;51.198;4.468;2023-01-30T07:57:55;11.48;;;2.45;;
22705;SDS011;11520;51.198;4.468;2023-01-30T08:00:23;14.75;;;3.13;;
22705;SDS011;11520;51.198;4.468;2023-01-30T08:02:49;16.08;;;3.13;;
22705;SDS011;11520;51.198;4.468;2023-01-30T08:05:16;14.52;;;3.10;;
22705;SDS011;11520;51.198;4.468;2023-01-30T08:07:41;20.60;;;3.35;;
22705;SDS011;11520;51.198;4.468;2023-01-30T08:10:07;16.88;;;3.10;;
22705;SDS011;11520;51.198;4.468;2023-01-30T08:12:34;16.45;;;3.00;;
22705;SDS011;11520;51.198;4.468;2023-01-30T08:15:00;13.38;;;3.03;;
22705;SDS011;11520;51.198;4.468;2023-01-30T08:17:26;28.85;;;4.15;;
22705;SDS011;11520;51.198;4.468;2023-01-30T08:19:52;14.10;;;3.03;;
22705;SDS011;11520;51.198;4.468;2023-01-30T08:22:18;16.90;;;3.20;;
22705;SDS011;11520;51.198;4.468;2023-01-30T08:24:46;11.63;;;2.78;;
22705;SDS011;11520;51.198;4.468;2023-01-30T08:27:12;10.63;;;2.28;;
22705;SDS011;11520;51.198;4.468;2023-01-30T08:29:38;9.73;;;2.63;;
22705;SDS011;11520;51.198;4.468;2023-01-30T08:32:04;13.70;;;2.90;;
22705;SDS011;11520;51.198;4.468;2023-01-30T08:34:29;12.13;;;2.50;;
22705;SDS011;11520;51.198;4.468;2023-01-30T08:36:55;19.95;;;3.80;;
22705;SDS011;11520;51.198;4.468;2023-01-30T08:39:22;19.63;;;3.05;;
22705;SDS011;11520;51.198;4.468;2023-01-30T08:41:48;18.75;;;3.50;;
22705;SDS011;11520;51.198;4.468;2023-01-30T08:44:14;11.32;;;2.92;;
22705;SDS011;11520;51.198;4.468;2023-01-30T08:46:40;15.90;;;4.55;;
22705;SDS011;11520;51.198;4.468;2023-01-30T08:49:07;11.13;;;2.97;;
22705;SDS011;11520;51.198;4.468;2023-01-30T08:54:04;27.92;;;3.90;;
22705;SDS011;11520;51.198;4.468;2023-01-30T08:56:35;13.93;;;3.13;;
22705;SDS011;11520;51.198;4.468;2023-01-30T08:59:00;11.20;;;3.05;;
22705;SDS011;11520;51.198;4.468;2023-01-30T09:01:26;13.70;;;3.38;;
22705;SDS011;11520;51.198;4.468;2023-01-30T09:03:52;15.35;;;3.55;;
22705;SDS011;11520;51.198;4.468;2023-01-30T09:06:17;14.13;;;3.70;;
22705;SDS011;11520;51.198;4.468;2023-01-30T09:08:43;11.18;;;2.83;;
22705;SDS011;11520;51.198;4.468;2023-01-30T09:11:09;18.95;;;3.40;;
22705;SDS011;11520;51.198;4.468;2023-01-30T09:13:35;16.90;;;2.90;;
22705;SDS011;11520;51.198;4.468;2023-01-30T09:16:04;15.75;;;2.95;;
22705;SDS011;11520;51.198;4.468;2023-01-30T09:18:30;20.00;;;3.95;;
22705;SDS011;11520;51.198;4.468;2023-01-30T09:21:02;14.73;;;2.97;;
22705;SDS011;11520;51.198;4.468;2023-01-30T09:23:29;18.88;;;3.58;;
22705;SDS011;11520;51.198;4.468;2023-01-30T09:25:55;13.85;;;2.65;;
22705;SDS011;11520;51.198;4.468;2023-01-30T09:28:21;17.73;;;3.70;;
22705;SDS011;11520;51.198;4.468;2023-01-30T09:30:47;21.45;;;2.42;;
22705;SDS011;11520;51.198;4.468;2023-01-30T09:33:12;14.68;;;3.30;;
22705;SDS011;11520;51.198;4.468;2023-01-30T09:35:41;17.67;;;2.92;;
22705;SDS011;11520;51.198;4.468;2023-01-30T09:38:07;16.08;;;2.88;;
22705;SDS011;11520;51.198;4.468;2023-01-30T09:40:32;15.98;;;2.83;;
22705;SDS011;11520;51.198;4.468;2023-01-30T09:45:37;14.98;;;3.00;;
22705;SDS011;11520;51.198;4.468;2023-01-30T09:48:12;15.95;;;2.70;;
22705;SDS011;11520;51.198;4.468;2023-01-30T09:53:47;14.73;;;2.97;;
22705;SDS011;11520;51.198;4.468;2023-01-30T09:56:17;19.38;;;3.42;;
22705;SDS011;11520;51.198;4.468;2023-01-30T09:58:45;23.50;;;3.80;;
22705;SDS011;11520;51.198;4.468;2023-01-30T10:01:32;17.50;;;3.58;;
22705;SDS011;11520;51.198;4.468;2023-01-30T10:04:23;13.80;;;2.50;;
22705;SDS011;11520;51.198;4.468;2023-01-30T10:09:58;8.82;;;2.58;;
22705;SDS011;11520;51.198;4.468;2023-01-30T10:15:01;20.92;;;3.05;;
22705;SDS011;11520;51.198;4.468;2023-01-30T10:23:38;13.13;;;2.22;;
22705;SDS011;11520;51.198;4.468;2023-01-30T10:26:22;9.50;;;2.15;;
22705;SDS011;11520;51.198;4.468;2023-01-30T10:28:58;9.77;;;1.95;;
22705;SDS011;11520;51.198;4.468;2023-01-30T10:34:17;8.38;;;2.05;;
22705;SDS011;11520;51.198;4.468;2023-01-30T10:42:27;13.60;;;2.15;;
22705;SDS011;11520;51.198;4.468;2023-01-30T10:45:20;12.05;;;1.92;;
22705;SDS011;11520;51.198;4.468;2023-01-30T10:53:16;6.80;;;2.03;;
22705;SDS011;11520;51.198;4.468;2023-01-30T10:56:21;15.73;;;2.72;;
22705;SDS011;11520;51.198;4.468;2023-01-30T11:07:00;14.60;;;2.58;;
22705;SDS011;11520;51.198;4.468;2023-01-30T11:09:37;11.35;;;2.22;;
22705;SDS011;11520;51.198;4.468;2023-01-30T11:12:12;16.10;;;3.20;;
22705;SDS011;11520;51.198;4.468;2023-01-30T11:17:44;16.05;;;2.92;;
22705;SDS011;11520;51.198;4.468;2023-01-30T11:22:48;20.25;;;3.40;;
22705;SDS011;11520;51.198;4.468;2023-01-30T11:25:21;17.77;;;2.65;;
22705;SDS011;11520;51.198;4.468;2023-01-30T11:28:00;16.48;;;2.75;;
22705;SDS011;11520;51.198;4.468;2023-01-30T11:30:29;21.02;;;2.38;;
22705;SDS011;11520;51.198;4.468;2023-01-30T11:33:07;19.77;;;3.10;;
22705;SDS011;11520;51.198;4.468;2023-01-30T11:36:03;11.45;;;2.63;;
22705;SDS011;11520;51.198;4.468;2023-01-30T11:38:31;19.83;;;3.03;;
22705;SDS011;11520;51.198;4.468;2023-01-30T11:43:31;19.13;;;3.15;;
22705;SDS011;11520;51.198;4.468;2023-01-30T11:45:58;14.63;;;2.75;;
22705;SDS011;11520;51.198;4.468;2023-01-30T11:48:27;14.70;;;2.33;;
22705;SDS011;11520;51.198;4.468;2023-01-30T11:51:02;12.60;;;3.03;;
22705;SDS011;11520;51.198;4.468;2023-01-30T11:53:34;21.17;;;4.05;;
22705;SDS011;11520;51.198;4.468;2023-01-30T11:56:04;15.70;;;3.00;;
22705;SDS011;11520;51.198;4.468;2023-01-30T11:58:34;19.45;;;3.28;;
22705;SDS011;11520;51.198;4.468;2023-01-30T12:01:02;18.25;;;2.92;;
22705;SDS011;11520;51.198;4.468;2023-01-30T12:03:29;20.52;;;3.53;;
22705;SDS011;11520;51.198;4.468;2023-01-30T12:05:56;18.48;;;3.22;;
22705;SDS011;11520;51.198;4.468;2023-01-30T12:08:25;21.25;;;3.00;;
22705;SDS011;11520;51.198;4.468;2023-01-30T12:13:27;11.57;;;2.47;;
22705;SDS011;11520;51.198;4.468;2023-01-30T12:16:05;19.10;;;2.72;;
22705;SDS011;11520;51.198;4.468;2023-01-30T12:18:42;17.58;;;3.00;;
22705;SDS011;11520;51.198;4.468;2023-01-30T12:24:15;20.10;;;2.97;;
22705;SDS011;11520;51.198;4.468;2023-01-30T12:30:04;16.95;;;3.13;;
22705;SDS011;11520;51.198;4.468;2023-01-30T12:32:37;16.42;;;2.53;;
22705;SDS011;11520;51.198;4.468;2023-01-30T12:35:12;15.50;;;2.63;;
22705;SDS011;11520;51.198;4.468;2023-01-30T12:38:20;14.07;;;2.90;;
22705;SDS011;11520;51.198;4.468;2023-01-30T12:46:03;10.43;;;2.85;;
22705;SDS011;11520;51.198;4.468;2023-01-30T12:48:54;14.35;;;3.42;;
22705;SDS011;11520;51.198;4.468;2023-01-30T12:57:08;22.90;;;3.17;;
22705;SDS011;11520;51.198;4.468;2023-01-30T13:00:46;23.80;;;3.30;;
22705;SDS011;11520;51.198;4.468;2023-01-30T13:27:25;21.33;;;3.50;;
22705;SDS011;11520;51.198;4.468;2023-01-30T13:29:53;20.63;;;3.65;;
22705;SDS011;11520;51.198;4.468;2023-01-30T13:32:39;16.13;;;3.00;;
22705;SDS011;11520;51.198;4.468;2023-01-30T13:35:24;25.42;;;3.70;;
22705;SDS011;11520;51.198;4.468;2023-01-30T13:37:57;19.25;;;2.90;;
22705;SDS011;11520;51.198;4.468;2023-01-30T13:40:26;20.48;;;3.00;;
22705;SDS011;11520;51.198;4.468;2023-01-30T13:42:59;19.17;;;3.33;;
22705;SDS011;11520;51.198;4.468;2023-01-30T13:45:42;16.33;;;3.08;;
22705;SDS011;11520;51.198;4.468;2023-01-30T13:53:36;20.35;;;4.63;;
22705;SDS011;11520;51.198;4.468;2023-01-30T13:56:15;18.05;;;3.70;;
22705;SDS011;11520;51.198;4.468;2023-01-30T14:04:43;22.00;;;3.47;;
22705;SDS011;11520;51.198;4.468;2023-01-30T14:09:45;19.63;;;4.13;;
22705;SDS011;11520;51.198;4.468;2023-01-30T14:12:27;22.08;;;3.08;;
22705;SDS011;11520;51.198;4.468;2023-01-30T14:20:49;18.00;;;3.35;;
22705;SDS011;11520;51.198;4.468;2023-01-30T14:25:58;27.10;;;3.75;;
22705;SDS011;11520;51.198;4.468;2023-01-30T14:30:51;20.08;;;3.75;;
22705;SDS011;11520;51.198;4.468;2023-01-30T14:35:45;13.73;;;3.13;;
22705;SDS011;11520;51.198;4.468;2023-01-30T14:38:32;19.17;;;4.07;;
22705;SDS011;11520;51.198;4.468;2023-01-30T14:46:42;15.10;;;3.65;;
22705;SDS011;11520;51.198;4.468;2023-01-30T14:54:21;24.67;;;4.10;;
22705;SDS011;11520;51.198;4.468;2023-01-30T14:59:56;21.83;;;3.72;;
22705;SDS011;11520;51.198;4.468;2023-01-30T15:02:35;21.13;;;2.75;;
22705;SDS011;11520;51.198;4.468;2023-01-30T15:05:16;21.40;;;3.25;;
22705;SDS011;11520;51.198;4.468;2023-01-30T15:07:48;16.15;;;2.88;;
22705;SDS011;11520;51.198;4.468;2023-01-30T15:18:34;13.70;;;2.70;;
22705;SDS011;11520;51.198;4.468;2023-01-30T15:26:43;15.85;;;2.88;;
22705;SDS011;11520;51.198;4.468;2023-01-30T15:31:57;20.33;;;3.40;;
22705;SDS011;11520;51.198;4.468;2023-01-30T15:34:28;17.45;;;3.17;;
22705;SDS011;11520;51.198;4.468;2023-01-30T15:36:56;14.07;;;2.70;;
22705;SDS011;11520;51.198;4.468;2023-01-30T15:39:26;22.50;;;4.47;;
22705;SDS011;11520;51.198;4.468;2023-01-30T15:41:53;23.17;;;4.03;;
22705;SDS011;11520;51.198;4.468;2023-01-30T15:50:01;18.30;;;2.85;;
22705;SDS011;11520;51.198;4.468;2023-01-30T15:52:41;17.23;;;3.03;;
22705;SDS011;11520;51.198;4.468;2023-01-30T15:57:50;23.02;;;4.20;;
22705;SDS011;11520;51.198;4.468;2023-01-30T16:00:23;28.40;;;3.00;;
22705;SDS011;11520;51.198;4.468;2023-01-30T16:05:21;17.48;;;3.72;;
22705;SDS011;11520;51.198;4.468;2023-01-30T16:07:49;17.15;;;3.53;;
22705;SDS011;11520;51.198;4.468;2023-01-30T16:10:19;13.45;;;2.85;;
22705;SDS011;11520;51.198;4.468;2023-01-30T16:12:47;17.77;;;2.92;;
22705;SDS011;11520;51.198;4.468;2023-01-30T16:15:16;16.08;;;3.42;;
22705;SDS011;11520;51.198;4.468;2023-01-30T16:18:08;18.38;;;3.47;;
22705;SDS011;11520;51.198;4.468;2023-01-30T16:20:52;17.40;;;2.58;;
22705;SDS011;11520;51.198;4.468;2023-01-30T16:26:06;24.83;;;3.40;;
22705;SDS011;11520;51.198;4.468;2023-01-30T16:28:39;20.60;;;3.50;;
22705;SDS011;11520;51.198;4.468;2023-01-30T16:31:05;18.95;;;3.25;;
22705;SDS011;11520;51.198;4.468;2023-01-30T16:33:34;19.77;;;3.35;;
22705;SDS011;11520;51.198;4.468;2023-01-30T16:38:44;16.02;;;3.42;;
22705;SDS011;11520;51.198;4.468;2023-01-30T16:41:27;21.90;;;3.58;;
22705;SDS011;11520;51.198;4.468;2023-01-30T16:47:05;23.88;;;3.30;;
22705;SDS011;11520;51.198;4.468;2023-01-30T16:55:04;23.77;;;3.33;;
22705;SDS011;11520;51.198;4.468;2023-01-30T17:00:20;26.73;;;4.22;;
22705;SDS011;11520;51.198;4.468;2023-01-30T17:02:49;17.00;;;4.53;;
22705;SDS011;11520;51.198;4.468;2023-01-30T17:05:20;20.17;;;3.85;;
22705;SDS011;11520;51.198;4.468;2023-01-30T17:07:49;21.70;;;4.95;;
22705;SDS011;11520;51.198;4.468;2023-01-30T17:13:25;22.58;;;4.50;;
22705;SDS011;11520;51.198;4.468;2023-01-30T17:16:45;21.10;;;3.95;;
22705;SDS011;11520;51.198;4.468;2023-01-30T17:18:47;22.48;;;4.63;;
22705;SDS011;11520;51.198;4.468;2023-01-30T17:21:13;23.35;;;4.90;;
22705;SDS011;11520;51.198;4.468;2023-01-30T17:23:44;31.77;;;5.22;;
22705;SDS011;11520;51.198;4.468;2023-01-30T17:26:22;21.17;;;4.28;;
22705;SDS011;11520;51.198;4.468;2023-01-30T17:28:48;19.75;;;4.05;;
22705;SDS011;11520;51.198;4.468;2023-01-30T17:31:16;24.98;;;3.97;;
22705;SDS011;11520;51.198;4.468;2023-01-30T17:33:42;27.08;;;4.65;;
22705;SDS011;11520;51.198;4.468;2023-01-30T17:36:18;22.85;;;4.30;;
22705;SDS011;11520;51.198;4.468;2023-01-30T17:38:52;20.70;;;4.40;;
22705;SDS011;11520;51.198;4.468;2023-01-30T17:41:36;23.58;;;4.45;;
22705;SDS011;11520;51.198;4.468;2023-01-30T17:44:02;15.43;;;3.42;;
22705;SDS011;11520;51.198;4.468;2023-01-30T17:46:37;25.95;;;5.03;;
22705;SDS011;11520;51.198;4.468;2023-01-30T17:49:16;21.33;;;4.65;;
22705;SDS011;11520;51.198;4.468;2023-01-30T17:51:43;19.92;;;4.45;;
22705;SDS011;11520;51.198;4.468;2023-01-30T17:54:10;26.58;;;5.60;;
22705;SDS011;11520;51.198;4.468;2023-01-30T17:56:37;17.92;;;4.78;;
22705;SDS011;11520;51.198;4.468;2023-01-30T17:59:12;18.70;;;3.92;;
22705;SDS011;11520;51.198;4.468;2023-01-30T18:01:42;18.58;;;4.22;;
22705;SDS011;11520;51.198;4.468;2023-01-30T18:04:16;22.52;;;3.70;;
22705;SDS011;11520;51.198;4.468;2023-01-30T18:06:44;20.83;;;3.92;;
22705;SDS011;11520;51.198;4.468;2023-01-30T18:09:17;15.95;;;3.90;;
22705;SDS011;11520;51.198;4.468;2023-01-30T18:11:46;17.30;;;4.20;;
22705;SDS011;11520;51.198;4.468;2023-01-30T18:14:12;18.70;;;3.95;;
22705;SDS011;11520;51.198;4.468;2023-01-30T18:16:39;16.90;;;3.75;;
22705;SDS011;11520;51.198;4.468;2023-01-30T18:19:14;27.38;;;4.88;;
22705;SDS011;11520;51.198;4.468;2023-01-30T18:21:43;12.63;;;3.13;;